createdAt,value
2018-12-13T00:00:51.984Z,0.91
2018-12-13T00:03:19.396Z,0.92
2018-12-13T00:05:46.812Z,0.92
2018-12-13T00:08:14.368Z,0.87
2018-12-13T00:10:41.776Z,0.87
2018-12-13T00:13:09.482Z,0.85
2018-12-13T00:15:37.890Z,0.82
2018-12-13T00:18:05.349Z,0.79
2018-12-13T00:20:32.820Z,0.75
2018-12-13T00:23:00.544Z,0.72
2018-12-13T00:25:27.998Z,0.67
2018-12-13T00:27:55.399Z,0.67
2018-12-13T00:30:23.115Z,0.64
2018-12-13T00:32:50.523Z,0.61
2018-12-13T00:35:18.867Z,0.56
2018-12-13T00:37:46.723Z,0.53
2018-12-13T00:40:15.013Z,0.55
2018-12-13T00:42:42.447Z,0.59
2018-12-13T00:45:10.215Z,0.59
2018-12-13T00:47:37.687Z,0.58
2018-12-13T00:50:05.308Z,0.57
2018-12-13T00:52:33.324Z,0.50
2018-12-13T00:55:00.803Z,0.47
2018-12-13T00:57:28.205Z,0.46
2018-12-13T00:59:55.776Z,0.46
2018-12-13T01:02:23.684Z,0.46
2018-12-13T01:04:51.092Z,0.48
2018-12-13T01:07:18.860Z,0.49
2018-12-13T01:09:46.260Z,0.51
2018-12-13T01:12:13.662Z,0.51
2018-12-13T01:14:41.112Z,0.50
2018-12-13T01:17:08.517Z,0.48
2018-12-13T01:19:35.917Z,0.44
2018-12-13T01:22:03.348Z,0.40
2018-12-13T01:24:30.748Z,0.37
2018-12-13T01:26:58.983Z,0.34
2018-12-13T01:29:26.716Z,0.36
2018-12-13T01:31:54.118Z,0.38
2018-12-13T01:34:21.805Z,0.36
2018-12-13T01:36:52.373Z,0.34
2018-12-13T01:39:19.892Z,0.35
2018-12-13T01:41:47.294Z,0.35
2018-12-13T01:44:14.823Z,0.36
2018-12-13T01:46:43.021Z,0.36
2018-12-13T01:49:10.428Z,0.35
2018-12-13T01:51:38.098Z,0.33
2018-12-13T01:54:05.502Z,0.35
2018-12-13T01:56:32.921Z,0.39
2018-12-13T01:59:00.341Z,0.41
2018-12-13T02:01:27.742Z,0.42
2018-12-13T02:03:55.139Z,0.44
2018-12-13T02:06:22.556Z,0.43
2018-12-13T02:08:50.364Z,0.43
2018-12-13T02:11:17.766Z,0.39
2018-12-13T02:13:45.309Z,0.34
2018-12-13T02:16:12.703Z,0.30
2018-12-13T02:18:40.121Z,0.28
2018-12-13T02:21:07.678Z,0.26
2018-12-13T02:23:35.081Z,0.25
2018-12-13T02:26:02.610Z,0.24
2018-12-13T02:28:30.165Z,0.25
2018-12-13T02:30:57.559Z,0.26
2018-12-13T02:33:25.068Z,0.19
2018-12-13T02:35:52.525Z,0.14
2018-12-13T02:38:20.017Z,0.12
2018-12-13T02:40:47.420Z,0.12
2018-12-13T02:43:14.996Z,0.13
2018-12-13T02:45:42.816Z,0.11
2018-12-13T02:48:10.418Z,0.10
2018-12-13T02:50:38.004Z,0.07
2018-12-13T02:53:05.713Z,0.08
2018-12-13T02:55:33.108Z,0.09
2018-12-13T02:58:00.663Z,0.10
2018-12-13T03:00:28.496Z,0.10
2018-12-13T03:02:55.954Z,0.10
2018-12-13T03:05:23.650Z,0.08
2018-12-13T03:07:51.330Z,0.05
2018-12-13T03:10:19.732Z,0.05
2018-12-13T03:12:47.450Z,0.01
2018-12-13T03:15:14.856Z,-0.04
2018-12-13T03:17:42.793Z,-0.04
2018-12-13T03:20:10.437Z,-0.05
2018-12-13T03:22:37.845Z,-0.01
2018-12-13T03:25:05.544Z,0.02
2018-12-13T03:27:33.108Z,0.01
2018-12-13T03:30:00.514Z,-0.01
2018-12-13T03:32:27.921Z,-0.01
2018-12-13T03:34:55.887Z,-0.02
2018-12-13T03:37:23.283Z,-0.03
2018-12-13T03:39:50.701Z,-0.01
2018-12-13T03:42:18.263Z,-0.02
2018-12-13T03:44:45.678Z,-0.05
2018-12-13T03:47:13.419Z,-0.09
2018-12-13T03:49:40.935Z,-0.10
2018-12-13T03:52:08.341Z,-0.07
2018-12-13T03:54:35.745Z,-0.08
2018-12-13T03:57:03.515Z,-0.06
2018-12-13T03:59:30.936Z,-0.06
2018-12-13T04:01:58.336Z,-0.04
2018-12-13T04:04:25.787Z,-0.01
2018-12-13T04:06:53.195Z,0.01
2018-12-13T04:09:21.389Z,-0.01
2018-12-13T04:11:48.976Z,-0.07
2018-12-13T04:14:16.408Z,-0.15
2018-12-13T04:16:44.223Z,-0.16
2018-12-13T04:19:11.763Z,-0.18
2018-12-13T04:21:39.223Z,-0.18
2018-12-13T04:24:06.639Z,-0.20
2018-12-13T04:26:34.064Z,-0.21
2018-12-13T04:29:01.474Z,-0.25
2018-12-13T04:31:28.879Z,-0.26
2018-12-13T04:33:56.405Z,-0.27
2018-12-13T04:36:23.812Z,-0.27
2018-12-13T04:38:51.840Z,-0.27
2018-12-13T04:41:19.381Z,-0.26
2018-12-13T04:43:47.949Z,-0.28
2018-12-13T04:46:15.341Z,-0.29
2018-12-13T04:48:42.889Z,-0.27
2018-12-13T04:51:10.308Z,-0.27
2018-12-13T04:53:38.620Z,-0.31
2018-12-13T04:56:06.166Z,-0.33
2018-12-13T04:58:33.580Z,-0.33
2018-12-13T05:01:00.974Z,-0.33
2018-12-13T05:03:28.746Z,-0.34
2018-12-13T05:05:56.150Z,-0.36
2018-12-13T05:08:23.552Z,-0.35
2018-12-13T05:10:51.986Z,-0.40
2018-12-13T05:13:20.611Z,-0.44
2018-12-13T05:15:48.135Z,-0.46
2018-12-13T05:18:15.939Z,-0.46
2018-12-13T05:20:43.394Z,-0.44
2018-12-13T05:23:10.801Z,-0.45
2018-12-13T05:25:38.421Z,-0.47
2018-12-13T05:28:05.825Z,-0.48
2018-12-13T05:30:33.225Z,-0.50
2018-12-13T05:33:00.993Z,-0.49
2018-12-13T05:35:28.451Z,-0.52
2018-12-13T05:37:55.857Z,-0.51
2018-12-13T05:40:23.571Z,-0.55
2018-12-13T05:42:50.971Z,-0.60
2018-12-13T05:45:18.375Z,-0.60
2018-12-13T05:47:45.827Z,-0.64
2018-12-13T05:50:13.427Z,-0.66
2018-12-13T05:52:40.831Z,-0.66
2018-12-13T05:55:08.599Z,-0.66
2018-12-13T05:57:36.243Z,-0.66
2018-12-13T06:00:06.037Z,-0.68
2018-12-13T06:02:33.851Z,-0.69
2018-12-13T06:05:01.264Z,-0.70
2018-12-13T06:07:29.533Z,-0.68
2018-12-13T06:09:57.139Z,-0.68
2018-12-13T06:12:24.540Z,-0.66
2018-12-13T06:14:51.947Z,-0.66
2018-12-13T06:17:19.639Z,-0.63
2018-12-13T06:19:47.046Z,-0.63
2018-12-13T06:22:14.455Z,-0.65
2018-12-13T06:24:42.194Z,-0.69
2018-12-13T06:27:09.676Z,-0.69
2018-12-13T06:29:41.769Z,-0.72
2018-12-13T06:32:06.523Z,-0.70
2018-12-13T06:34:34.558Z,-0.67
2018-12-13T06:37:02.139Z,-0.68
2018-12-13T06:39:29.701Z,-0.70
2018-12-13T06:41:57.105Z,-0.73
2018-12-13T06:44:24.574Z,-0.74
2018-12-13T06:46:52.009Z,-0.78
2018-12-13T06:49:19.411Z,-0.83
2018-12-13T06:51:46.828Z,-0.85
2018-12-13T06:54:14.336Z,-0.86
2018-12-13T06:56:41.740Z,-0.91
2018-12-13T06:59:09.136Z,-0.96
2018-12-13T07:01:36.919Z,-0.98
2018-12-13T07:04:04.334Z,-1.02
2018-12-13T07:06:31.753Z,-1.08
2018-12-13T07:08:59.386Z,-1.12
2018-12-13T07:11:27.748Z,-1.11
2018-12-13T07:13:55.154Z,-1.12
2018-12-13T07:16:22.882Z,-1.12
2018-12-13T07:18:50.280Z,-1.15
2018-12-13T07:21:17.692Z,-1.15
2018-12-13T07:23:45.466Z,-1.17
2018-12-13T07:26:13.560Z,-1.20
2018-12-13T07:28:40.969Z,-1.25
2018-12-13T07:31:08.644Z,-1.27
2018-12-13T07:33:36.053Z,-1.29
2018-12-13T07:36:03.456Z,-1.31
2018-12-13T07:38:32.008Z,-1.30
2018-12-13T07:40:59.420Z,-1.24
2018-12-13T07:43:27.322Z,-1.20
2018-12-13T07:45:54.827Z,-1.20
2018-12-13T07:48:22.735Z,-1.20
2018-12-13T07:50:50.207Z,-1.18
2018-12-13T07:53:17.735Z,-1.18
2018-12-13T07:55:45.145Z,-1.18
2018-12-13T07:58:12.551Z,-1.16
2018-12-13T08:00:40.083Z,-1.14
2018-12-13T08:03:07.590Z,-1.10
2018-12-13T08:05:35.084Z,-1.06
2018-12-13T08:08:02.550Z,-1.06
2018-12-13T08:10:29.959Z,-1.03
2018-12-13T08:12:57.369Z,-1.01
2018-12-13T08:15:25.125Z,-0.95
2018-12-13T08:17:52.578Z,-0.92
2018-12-13T08:20:20.040Z,-0.95
2018-12-13T08:22:47.476Z,-1.00
2018-12-13T08:25:14.877Z,-1.00
2018-12-13T08:27:42.284Z,-0.97
2018-12-13T08:30:10.280Z,-0.94
2018-12-13T08:32:38.475Z,-0.95
2018-12-13T08:35:06.120Z,-0.94
2018-12-13T08:37:33.670Z,-0.91
2018-12-13T08:40:01.355Z,-0.88
2018-12-13T08:42:28.966Z,-0.83
2018-12-13T08:44:56.425Z,-0.80
2018-12-13T08:47:23.832Z,-0.79
2018-12-13T08:49:51.238Z,-0.75
2018-12-13T08:52:18.721Z,-0.71
2018-12-13T08:54:46.219Z,-0.73
2018-12-13T08:57:13.631Z,-0.73
2018-12-13T08:59:41.393Z,-0.71
2018-12-13T09:02:08.855Z,-0.66
2018-12-13T09:04:36.774Z,-0.57
2018-12-13T09:07:04.220Z,-0.54
2018-12-13T09:09:31.619Z,-0.54
2018-12-13T09:11:59.024Z,-0.55
2018-12-13T09:14:26.629Z,-0.63
2018-12-13T09:16:54.019Z,-0.65
2018-12-13T09:19:21.427Z,-0.68
2018-12-13T09:21:49.020Z,-0.69
2018-12-13T09:24:16.423Z,-0.66
2018-12-13T09:26:43.831Z,-0.60
2018-12-13T09:29:11.500Z,-0.60
2018-12-13T09:31:38.909Z,-0.66
2018-12-13T09:34:06.315Z,-0.69
2018-12-13T09:36:33.969Z,-0.66
2018-12-13T09:39:01.380Z,-0.65
2018-12-13T09:41:28.784Z,-0.61
2018-12-13T09:43:56.344Z,-0.55
2018-12-13T09:46:24.439Z,-0.52
2018-12-13T09:48:52.132Z,-0.52
2018-12-13T09:51:19.799Z,-0.50
2018-12-13T09:53:47.287Z,-0.42
2018-12-13T09:56:14.999Z,-0.28
2018-12-13T09:58:42.611Z,-0.15
2018-12-13T10:01:10.032Z,-0.05
2018-12-13T10:03:37.437Z,-0.04
2018-12-13T10:06:05.201Z,-0.02
2018-12-13T10:08:32.640Z,0.02
2018-12-13T10:11:00.103Z,0.11
2018-12-13T10:13:27.661Z,0.17
2018-12-13T10:15:55.056Z,0.25
2018-12-13T10:18:22.658Z,0.30
2018-12-13T10:20:50.323Z,0.35
2018-12-13T10:23:17.719Z,0.40
2018-12-13T10:25:45.196Z,0.46
2018-12-13T10:28:12.912Z,0.50
2018-12-13T10:30:40.307Z,0.58
2018-12-13T10:33:07.713Z,0.66
2018-12-13T10:35:35.147Z,0.77
2018-12-13T10:38:02.605Z,0.83
2018-12-13T10:40:30.005Z,0.85
2018-12-13T10:42:57.545Z,0.92
2018-12-13T10:45:24.952Z,1.01
2018-12-13T10:47:52.352Z,1.11
2018-12-13T10:50:19.789Z,1.23
2018-12-13T10:52:47.188Z,1.31
2018-12-13T10:55:14.591Z,1.40
2018-12-13T10:57:42.289Z,1.47
2018-12-13T11:00:11.785Z,1.60
2018-12-13T11:02:53.084Z,1.74
2018-12-13T11:05:20.484Z,1.86
2018-12-13T11:07:47.884Z,1.99
2018-12-13T11:10:15.856Z,2.19
2018-12-13T11:12:43.264Z,2.29
2018-12-13T11:15:10.674Z,2.38
2018-12-13T11:17:38.443Z,2.50
2018-12-13T11:20:06.357Z,2.53
2018-12-13T11:22:33.912Z,2.42
2018-12-13T11:25:01.523Z,2.31
2018-12-13T11:30:41.163Z,2.27
2018-12-13T11:33:08.556Z,2.18
2018-12-13T11:35:36.061Z,2.20
2018-12-13T11:38:03.567Z,2.25
2018-12-13T11:40:31.597Z,2.27
2018-12-13T11:42:59.516Z,2.35
2018-12-13T11:45:27.184Z,2.49
2018-12-13T11:47:54.612Z,2.68
2018-12-13T11:50:22.001Z,2.79
2018-12-13T11:52:49.424Z,2.90
2018-12-13T11:55:29.737Z,2.99
2018-12-13T11:57:57.430Z,3.04
2018-12-13T12:00:24.892Z,2.95
2018-12-13T12:02:52.305Z,2.89
2018-12-13T12:05:19.916Z,2.89
2018-12-13T12:07:47.328Z,2.95
2018-12-13T12:10:14.791Z,2.99
2018-12-13T12:12:42.496Z,3.01
2018-12-13T12:15:10.228Z,3.05
2018-12-13T12:17:38.284Z,3.12
2018-12-13T12:20:06.812Z,3.15
2018-12-13T12:22:34.321Z,3.18
2018-12-13T12:25:01.784Z,3.17
2018-12-13T12:27:29.397Z,3.17
2018-12-13T12:29:57.202Z,3.18
2018-12-13T12:32:24.593Z,3.20
2018-12-13T12:34:52.013Z,3.18
2018-12-13T12:37:19.408Z,3.17
2018-12-13T12:39:47.522Z,3.12
2018-12-13T12:42:14.948Z,3.06
2018-12-13T12:44:42.351Z,3.02
2018-12-13T12:47:09.755Z,2.99
2018-12-13T12:49:37.189Z,2.96
2018-12-13T12:52:04.679Z,2.91
2018-12-13T12:54:32.075Z,2.90
2018-12-13T12:56:59.693Z,2.89
2018-12-13T12:59:27.090Z,2.86
2018-12-13T13:01:54.766Z,2.85
2018-12-13T13:04:22.487Z,2.85
2018-12-13T13:06:50.023Z,2.84
2018-12-13T13:09:17.423Z,2.85
2018-12-13T13:11:46.025Z,2.80
2018-12-13T13:14:13.492Z,2.72
2018-12-13T13:16:40.995Z,2.66
2018-12-13T13:19:08.537Z,2.61
2018-12-13T13:21:36.028Z,2.58
2018-12-13T13:24:03.499Z,2.52
2018-12-13T13:26:31.110Z,2.49
2018-12-13T13:28:58.823Z,2.47
2018-12-13T13:31:26.241Z,2.43
2018-12-13T13:33:53.738Z,2.43
2018-12-13T13:36:21.187Z,2.44
2018-12-13T13:38:48.613Z,2.41
2018-12-13T13:41:16.375Z,2.34
2018-12-13T13:43:43.767Z,2.31
2018-12-13T13:46:11.173Z,2.29
2018-12-13T13:48:38.760Z,2.30
2018-12-13T13:51:06.220Z,2.28
2018-12-13T13:53:33.934Z,2.25
2018-12-13T13:56:01.525Z,2.25
2018-12-13T13:58:28.935Z,2.22
2018-12-13T14:00:56.714Z,2.20
2018-12-13T14:03:24.619Z,2.18
2018-12-13T14:05:52.914Z,2.15
2018-12-13T14:08:20.422Z,2.20
2018-12-13T14:10:47.968Z,2.34
2018-12-13T14:13:15.672Z,2.35
2018-12-13T14:15:43.068Z,2.43
2018-12-13T14:18:10.487Z,2.58
2018-12-13T14:20:38.303Z,2.66
2018-12-13T14:23:05.768Z,2.69
2018-12-13T14:25:33.248Z,2.63
2018-12-13T14:28:00.736Z,2.50
2018-12-13T14:30:28.188Z,2.41
2018-12-13T14:32:55.733Z,2.30
2018-12-13T14:35:23.122Z,2.21
2018-12-13T14:37:50.525Z,2.14
2018-12-13T14:40:18.092Z,2.11
2018-12-13T14:42:45.492Z,2.06
2018-12-13T14:45:13.004Z,2.02
2018-12-13T14:47:40.564Z,1.99
2018-12-13T14:50:08.120Z,1.94
2018-12-13T14:52:35.520Z,1.90
2018-12-13T14:55:02.944Z,1.87
2018-12-13T14:57:30.696Z,1.87
2018-12-13T14:59:59.248Z,1.83
2018-12-13T15:02:26.700Z,1.81
2018-12-13T15:04:54.768Z,1.80
2018-12-13T15:07:22.164Z,1.76
2018-12-13T15:09:51.054Z,1.71
2018-12-13T15:12:19.430Z,1.69
2018-12-13T15:14:46.840Z,1.69
2018-12-13T15:17:14.459Z,1.68
2018-12-13T15:19:42.252Z,1.68
2018-12-13T15:22:09.672Z,1.67
2018-12-13T15:24:38.363Z,1.66
2018-12-13T15:27:06.155Z,1.66
2018-12-13T15:29:33.587Z,1.64
2018-12-13T15:32:01.352Z,1.61
2018-12-13T15:34:29.282Z,1.58
2018-12-13T15:36:56.880Z,1.57
2018-12-13T15:39:24.644Z,1.56
2018-12-13T15:41:52.052Z,1.54
2018-12-13T15:44:19.456Z,1.54
2018-12-13T15:46:47.008Z,1.52
2018-12-13T15:49:14.420Z,1.49
2018-12-13T15:51:42.648Z,1.49
2018-12-13T15:54:10.308Z,1.48
2018-12-13T15:56:37.714Z,1.46
2018-12-13T15:59:05.134Z,1.45
2018-12-13T16:01:32.671Z,1.45
2018-12-13T16:04:00.144Z,1.45
2018-12-13T16:06:27.549Z,1.45
2018-12-13T16:08:55.326Z,1.45
2018-12-13T16:11:22.738Z,1.45
2018-12-13T16:13:50.945Z,1.44
2018-12-13T16:16:18.636Z,1.42
2018-12-13T16:18:46.048Z,1.41
2018-12-13T16:21:13.464Z,1.39
2018-12-13T16:23:41.008Z,1.38
2018-12-13T16:26:08.911Z,1.37
2018-12-13T16:28:36.344Z,1.38
2018-12-13T16:31:04.094Z,1.40
2018-12-13T16:33:31.984Z,1.38
2018-12-13T16:35:59.390Z,1.38
2018-12-13T16:38:26.887Z,1.40
2018-12-13T16:40:54.287Z,1.38
2018-12-13T16:43:21.703Z,1.35
2018-12-13T16:45:49.195Z,1.34
2018-12-13T16:48:16.599Z,1.33
2018-12-13T16:50:44.163Z,1.35
2018-12-13T16:53:11.940Z,1.31
2018-12-13T16:55:39.345Z,1.31
2018-12-13T16:58:06.744Z,1.31
2018-12-13T17:00:34.204Z,1.31
2018-12-13T17:03:05.541Z,1.32
2018-12-13T17:05:33.139Z,1.33
2018-12-13T17:08:00.661Z,1.31
2018-12-13T17:10:28.255Z,1.31
2018-12-13T17:12:55.753Z,1.31
2018-12-13T17:15:23.231Z,1.32
2018-12-13T17:17:50.638Z,1.33
2018-12-13T17:20:18.047Z,1.33
2018-12-13T17:22:45.809Z,1.30
2018-12-13T17:25:13.234Z,1.32
2018-12-13T17:27:41.383Z,1.30
2018-12-13T17:30:09.092Z,1.24
2018-12-13T17:32:36.501Z,1.15
2018-12-13T17:35:05.030Z,1.10
2018-12-13T17:37:32.464Z,1.05
2018-12-13T17:39:59.868Z,1.01
2018-12-13T17:42:28.170Z,0.95
2018-12-13T17:44:55.823Z,0.95
2018-12-13T17:47:23.240Z,0.93
2018-12-13T17:49:50.650Z,0.89
2018-12-13T17:52:18.225Z,0.83
2018-12-13T17:54:45.721Z,0.82
2018-12-13T17:57:13.138Z,0.83
2018-12-13T17:59:40.617Z,0.84
2018-12-13T18:02:08.018Z,0.84
2018-12-13T18:04:35.430Z,0.82
2018-12-13T18:07:03.118Z,0.78
2018-12-13T18:09:31.472Z,0.77
2018-12-13T18:11:59.577Z,0.75
2018-12-13T18:14:27.112Z,0.66
2018-12-13T18:16:54.674Z,0.63
2018-12-13T18:19:22.152Z,0.59
2018-12-13T18:21:49.818Z,0.57
2018-12-13T18:24:17.224Z,0.53
2018-12-13T18:26:45.323Z,0.52
2018-12-13T18:29:12.776Z,0.52
2018-12-13T18:31:40.199Z,0.48
2018-12-13T18:34:09.036Z,0.43
2018-12-13T18:36:36.579Z,0.36
2018-12-13T18:39:07.116Z,0.36
2018-12-13T18:41:34.673Z,0.32
2018-12-13T18:44:02.328Z,0.34
2018-12-13T18:46:30.128Z,0.33
2018-12-13T18:48:57.626Z,0.27
2018-12-13T18:51:25.640Z,0.22
2018-12-13T18:53:53.949Z,0.16
2018-12-13T18:56:21.352Z,0.09
2018-12-13T18:58:48.908Z,0.03
2018-12-13T19:01:16.336Z,-0.03
2018-12-13T19:03:43.744Z,-0.05
2018-12-13T19:06:11.292Z,-0.08
2018-12-13T19:08:38.972Z,-0.13
2018-12-13T19:11:06.378Z,-0.13
2018-12-13T19:13:34.171Z,-0.09
2018-12-13T19:16:02.460Z,-0.11
2018-12-13T19:18:29.864Z,-0.14
2018-12-13T19:20:57.464Z,-0.17
2018-12-13T19:23:25.431Z,-0.19
2018-12-13T19:25:52.844Z,-0.23
2018-12-13T19:28:20.448Z,-0.23
2018-12-13T19:30:48.064Z,-0.27
2018-12-13T19:33:15.888Z,-0.34
2018-12-13T19:35:43.588Z,-0.34
2018-12-13T19:38:11.000Z,-0.37
2018-12-13T19:40:38.527Z,-0.44
2018-12-13T19:43:06.109Z,-0.47
2018-12-13T19:45:33.583Z,-0.49
2018-12-13T19:48:01.214Z,-0.51
2018-12-13T19:50:28.694Z,-0.57
2018-12-13T19:52:56.102Z,-0.58
2018-12-13T19:55:23.575Z,-0.59
2018-12-13T19:57:51.073Z,-0.61
2018-12-13T20:00:18.622Z,-0.65
2018-12-13T20:02:46.751Z,-0.68
2018-12-13T20:05:14.187Z,-0.68
2018-12-13T20:07:41.703Z,-0.69
2018-12-13T20:10:09.118Z,-0.70
2018-12-13T20:12:36.820Z,-0.71
2018-12-13T20:15:04.575Z,-0.73
2018-12-13T20:17:32.107Z,-0.78
2018-12-13T20:19:59.715Z,-0.78
2018-12-13T20:22:27.240Z,-0.79
2018-12-13T20:24:54.641Z,-0.77
2018-12-13T20:27:22.652Z,-0.77
2018-12-13T20:29:50.060Z,-0.76
2018-12-13T20:32:17.539Z,-0.76
2018-12-13T20:34:46.188Z,-0.72
2018-12-13T20:37:13.618Z,-0.66
2018-12-13T20:39:41.852Z,-0.66
2018-12-13T20:42:09.474Z,-0.69
2018-12-13T20:44:36.879Z,-0.70
2018-12-13T20:47:04.310Z,-0.72
2018-12-13T20:49:31.844Z,-0.69
2018-12-13T20:51:59.257Z,-0.71
2018-12-13T20:54:26.796Z,-0.72
2018-12-13T20:56:54.243Z,-0.70
2018-12-13T20:59:21.659Z,-0.69
2018-12-13T21:01:49.599Z,-0.67
2018-12-13T21:04:17.741Z,-0.64
2018-12-13T21:06:47.151Z,-0.63
2018-12-13T21:09:14.551Z,-0.60
2018-12-13T21:11:42.136Z,-0.61
2018-12-13T21:14:09.620Z,-0.62
2018-12-13T21:16:37.823Z,-0.64
2018-12-13T21:19:05.327Z,-0.64
2018-12-13T21:21:32.742Z,-0.67
2018-12-13T21:24:00.454Z,-0.70
2018-12-13T21:26:28.184Z,-0.72
2018-12-13T21:28:55.595Z,-0.73
2018-12-13T21:31:23.003Z,-0.74
2018-12-13T21:33:50.784Z,-0.78
2018-12-13T21:36:18.235Z,-0.82
2018-12-13T21:38:45.652Z,-0.83
2018-12-13T21:41:13.728Z,-0.83
2018-12-13T21:43:41.372Z,-0.85
2018-12-13T21:46:08.776Z,-0.89
2018-12-13T21:48:36.544Z,-0.93
2018-12-13T21:51:03.958Z,-0.95
2018-12-13T21:53:31.384Z,-0.98
2018-12-13T21:55:59.905Z,-1.00
2018-12-13T21:58:27.390Z,-0.97
2018-12-13T22:00:54.804Z,-0.97
2018-12-13T22:03:22.330Z,-1.01
2018-12-13T22:05:50.155Z,-1.02
2018-12-13T22:08:17.573Z,-1.04
2018-12-13T22:10:45.288Z,-1.06
2018-12-13T22:13:12.984Z,-1.10
2018-12-13T22:15:40.388Z,-1.10
2018-12-13T22:18:07.967Z,-1.12
2018-12-13T22:20:35.374Z,-1.12
2018-12-13T22:23:02.781Z,-1.12
2018-12-13T22:25:30.294Z,-1.11
2018-12-13T22:27:57.697Z,-1.11
2018-12-13T22:30:25.389Z,-1.15
2018-12-13T22:32:53.104Z,-1.11
2018-12-13T22:35:20.591Z,-1.06
2018-12-13T22:37:47.994Z,-1.04
2018-12-13T22:40:15.732Z,-1.09
2018-12-13T22:42:43.156Z,-1.13
2018-12-13T22:45:10.573Z,-1.14
2018-12-13T22:47:38.268Z,-1.21
2018-12-13T22:50:05.758Z,-1.22
2018-12-13T22:52:33.167Z,-1.24
2018-12-13T22:55:00.844Z,-1.31
2018-12-13T22:57:28.247Z,-1.32
2018-12-13T22:59:55.664Z,-1.34
2018-12-13T23:02:23.220Z,-1.34
2018-12-13T23:04:50.634Z,-1.35
2018-12-13T23:07:18.232Z,-1.39
2018-12-13T23:09:45.832Z,-1.46
2018-12-13T23:12:13.297Z,-1.53
2018-12-13T23:14:40.860Z,-1.47
2018-12-13T23:17:08.876Z,-1.48
2018-12-13T23:19:36.275Z,-1.49
2018-12-13T23:22:04.163Z,-1.49
2018-12-13T23:24:31.758Z,-1.53
2018-12-13T23:26:59.500Z,-1.54
2018-12-13T23:29:26.888Z,-1.54
2018-12-13T23:31:54.648Z,-1.54
2018-12-13T23:34:22.049Z,-1.54
2018-12-13T23:36:49.608Z,-1.54
2018-12-13T23:39:17.051Z,-1.57
2018-12-13T23:41:44.448Z,-1.58
2018-12-13T23:44:12.773Z,-1.62
2018-12-13T23:46:40.412Z,-1.68
2018-12-13T23:49:07.837Z,-1.72
2018-12-13T23:51:35.769Z,-1.73
2018-12-13T23:54:03.207Z,-1.74
2018-12-13T23:56:30.620Z,-1.73
2018-12-13T23:58:58.385Z,-1.72
